Time;durP1;ratioP1;P1;durP2;ratioP2;P2;SDS_P1;SDS_P2;PMS_P1;PMS_P2;Temp;Humidity;BMP_temperature;BMP_pressure;BME280_temperature;BME280_humidity;BME280_pressure;Samples;Min_cycle;Max_cycle;Signal;HPM_P1;HPM_P2
2023/03/11 00:00:53;;;;;;;13.25;11.63;;;27.20;92.00;;;;;;5007831;28;20041;-55
2023/03/11 00:03:23;;;;;;;14.50;11.48;;;27.20;92.00;;;;;;5007568;28;20038;-56
2023/03/11 00:05:51;;;;;;;12.85;11.27;;;27.20;92.20;;;;;;5007721;28;20014;-55
2023/03/11 00:08:21;;;;;;;15.10;11.20;;;27.20;92.20;;;;;;5007384;28;20069;-52
2023/03/11 00:10:53;;;;;;;15.15;11.60;;;27.20;92.20;;;;;;5007304;28;20077;-54
2023/03/11 00:13:21;;;;;;;12.07;10.88;;;27.20;92.20;;;;;;5007580;28;20023;-56
2023/03/11 00:15:54;;;;;;;15.88;10.95;;;27.20;92.20;;;;;;5006437;28;20044;-54
2023/03/11 00:18:26;;;;;;;13.77;10.90;;;27.20;92.20;;;;;;5007504;28;20237;-53
2023/03/11 00:20:53;;;;;;;;;;;27.20;92.20;;;;;;5007723;28;20038;-54
2023/03/11 00:23:20;;;;;;;13.30;10.70;;;27.20;92.20;;;;;;5007171;28;20079;-54
2023/03/11 00:25:50;;;;;;;11.00;9.80;;;27.10;92.20;;;;;;5007438;28;20050;-55
2023/03/11 00:28:21;;;;;;;15.68;10.23;;;27.10;92.20;;;;;;5006198;28;20026;-54
2023/03/11 00:30:47;;;;;;;14.15;10.65;;;27.10;92.30;;;;;;5006783;28;20026;-52
2023/03/11 00:33:26;;;;;;;13.25;11.82;;;27.00;92.60;;;;;;5005966;28;20026;-53
2023/03/11 00:35:52;;;;;;;15.52;12.63;;;26.80;93.10;;;;;;5007236;28;20026;-52
2023/03/11 00:38:20;;;;;;;217.18;29.60;;;26.70;93.40;;;;;;5006592;28;20022;-48
2023/03/11 00:40:48;;;;;;;45.00;15.07;;;26.50;93.60;;;;;;5006438;28;20097;-54
2023/03/11 00:43:15;;;;;;;24.67;13.88;;;26.40;93.90;;;;;;5022789;28;20048;-55
2023/03/11 00:45:45;;;;;;;21.20;14.23;;;26.30;94.40;;;;;;5025124;28;20113;-55
2023/03/11 00:48:16;;;;;;;25.42;14.73;;;26.30;94.50;;;;;;5026490;28;20009;-53
2023/03/11 00:50:44;;;;;;;24.13;14.85;;;26.30;94.30;;;;;;5026573;28;20302;-54
2023/03/11 00:53:11;;;;;;;25.33;14.27;;;26.20;94.80;;;;;;5025234;28;20025;-57
2023/03/11 00:55:38;;;;;;;20.17;13.88;;;26.20;94.80;;;;;;5014190;28;20049;-53
2023/03/11 00:58:06;;;;;;;17.83;14.30;;;26.30;94.70;;;;;;5017214;28;20195;-50
2023/03/11 01:00:33;;;;;;;17.50;13.90;;;26.40;94.30;;;;;;5021256;28;20033;-49
2023/03/11 01:03:25;;;;;;;16.23;13.55;;;26.50;94.20;;;;;;5014065;28;20038;-55
2023/03/11 01:06:45;;;;;;;24.05;14.80;;;26.60;94.10;;;;;;5026422;28;20021;-56
2023/03/11 01:09:12;;;;;;;17.13;14.35;;;26.60;94.00;;;;;;4965695;29;20043;-55
2023/03/11 01:11:42;;;;;;;20.52;14.15;;;26.60;93.90;;;;;;5017212;28;20302;-52
2023/03/11 01:14:09;;;;;;;17.05;13.82;;;26.70;93.80;;;;;;5025858;28;20047;-54
2023/03/11 01:16:36;;;;;;;17.35;14.10;;;26.70;93.80;;;;;;5026286;28;20022;-50
2023/03/11 01:19:03;;;;;;;16.10;13.98;;;26.70;93.80;;;;;;5025873;28;20025;-52
2023/03/11 01:21:29;;;;;;;16.63;14.10;;;26.70;93.90;;;;;;5025884;28;20030;-51
2023/03/11 01:23:56;;;;;;;18.65;14.82;;;26.70;93.90;;;;;;5025743;28;20030;-50
2023/03/11 01:26:32;;;;;;;21.30;15.48;;;26.70;94.00;;;;;;5009450;28;20386;-54
2023/03/11 01:29:00;;;;;;;20.02;15.43;;;26.70;93.90;;;;;;5014592;28;20060;-50
2023/03/11 01:31:35;;;;;;;22.38;15.23;;;26.70;94.00;;;;;;5011425;28;20057;-53
2023/03/11 01:34:02;;;;;;;18.75;15.35;;;26.70;94.00;;;;;;5005916;28;20030;-58
2023/03/11 01:36:31;;;;;;;18.52;15.18;;;26.70;94.00;;;;;;5005718;28;20034;-52
2023/03/11 01:38:57;;;;;;;16.65;14.95;;;26.70;94.00;;;;;;5005746;28;20022;-51
2023/03/11 01:41:24;;;;;;;18.75;14.90;;;26.70;94.10;;;;;;5005302;28;20022;-52
2023/03/11 01:43:56;;;;;;;16.77;13.63;;;26.70;94.20;;;;;;5005615;28;20085;-50
2023/03/11 01:46:27;;;;;;;18.23;13.67;;;26.70;94.10;;;;;;5005644;28;20380;-52
2023/03/11 01:49:01;;;;;;;17.15;13.77;;;26.70;94.00;;;;;;5005729;28;20034;-50
2023/03/11 01:51:36;;;;;;;19.13;14.50;;;26.70;93.90;;;;;;5014985;28;20034;-50
2023/03/11 01:54:18;;;;;;;16.20;12.70;;;26.70;93.90;;;;;;5021044;28;20379;-50
2023/03/11 01:56:48;;;;;;;17.33;13.18;;;26.70;93.80;;;;;;5024637;28;20436;-49
2023/03/11 01:59:23;;;;;;;14.80;12.57;;;26.70;93.80;;;;;;5025093;28;20038;-51
2023/03/11 02:01:55;;;;;;;15.15;12.93;;;26.70;93.80;;;;;;5016497;28;20037;-51
2023/03/11 02:04:21;;;;;;;14.52;12.68;;;26.60;93.70;;;;;;5025124;28;20030;-49
2023/03/11 02:06:48;;;;;;;15.98;13.35;;;26.70;93.70;;;;;;5024760;28;20072;-47
2023/03/11 02:09:17;;;;;;;14.57;12.80;;;26.70;93.70;;;;;;5025222;28;20025;-50
2023/03/11 02:11:44;;;;;;;20.73;13.32;;;26.70;93.70;;;;;;5021661;28;20077;-47
2023/03/11 02:14:10;;;;;;;14.77;12.02;;;26.70;93.70;;;;;;5019558;28;20028;-53
2023/03/11 02:16:38;;;;;;;17.27;12.85;;;26.60;93.60;;;;;;5015942;28;20041;-49
2023/03/11 02:19:38;;;;;;;14.93;12.05;;;26.60;93.70;;;;;;5005441;28;20025;-50
2023/03/11 02:22:21;;;;;;;18.00;11.98;;;26.60;93.70;;;;;;5029684;28;20033;-58
2023/03/11 02:24:59;;;;;;;17.08;12.73;;;26.60;93.80;;;;;;5023359;28;20357;-56
2023/03/11 02:27:27;;;;;;;14.23;12.73;;;26.60;93.80;;;;;;5023543;28;20040;-51
2023/03/11 02:29:58;;;;;;;15.57;12.77;;;26.60;93.90;;;;;;5029806;28;20206;-55
2023/03/11 02:32:28;;;;;;;15.73;12.50;;;26.50;93.90;;;;;;5042591;28;20025;-53
2023/03/11 02:34:55;;;;;;;18.25;13.48;;;26.40;94.00;;;;;;5044238;28;20029;-49
2023/03/11 02:37:25;;;;;;;13.40;12.00;;;26.40;94.10;;;;;;5044007;28;20060;-52
2023/03/11 02:39:53;;;;;;;16.88;12.98;;;26.40;94.10;;;;;;5014088;28;20065;-50
2023/03/11 02:42:25;;;;;;;15.20;12.82;;;26.40;94.20;;;;;;5004086;28;20042;-47
2023/03/11 02:45:04;;;;;;;19.50;12.80;;;26.40;94.20;;;;;;5003316;28;20101;-51
2023/03/11 02:47:32;;;;;;;16.95;13.25;;;26.40;94.30;;;;;;5003723;28;20022;-54
2023/03/11 02:49:59;;;;;;;16.77;13.20;;;26.40;94.30;;;;;;5002995;28;20062;-49
2023/03/11 02:52:27;;;;;;;18.50;12.68;;;26.40;94.30;;;;;;5003385;28;20033;-53
2023/03/11 02:54:54;;;;;;;14.85;12.90;;;26.40;94.20;;;;;;5002350;28;20040;-49
2023/03/11 02:57:23;;;;;;;15.95;13.02;;;26.30;94.20;;;;;;5003311;28;20034;-54
2023/03/11 02:59:50;;;;;;;18.02;13.60;;;26.30;94.30;;;;;;5002847;28;20053;-46
2023/03/11 03:02:17;;;;;;;17.85;13.23;;;26.30;94.30;;;;;;5003683;28;20034;-55
2023/03/11 03:04:43;;;;;;;15.90;12.75;;;26.30;94.30;;;;;;5004205;28;20049;-50
2023/03/11 03:07:10;;;;;;;17.25;12.50;;;26.30;94.40;;;;;;5006816;28;20229;-51
2023/03/11 03:09:37;;;;;;;14.38;12.55;;;26.30;94.30;;;;;;5016078;28;20030;-54
2023/03/11 03:12:04;;;;;;;16.52;13.10;;;26.30;94.30;;;;;;5014376;28;20209;-56
2023/03/11 03:14:31;;;;;;;16.63;13.20;;;26.30;94.30;;;;;;5014920;28;20389;-54
2023/03/11 03:16:59;;;;;;;17.67;13.50;;;26.30;94.30;;;;;;5020556;28;20037;-52
2023/03/11 03:19:25;;;;;;;13.98;12.30;;;26.20;94.20;;;;;;5023704;28;20034;-47
2023/03/11 03:21:52;;;;;;;15.02;12.93;;;26.20;94.20;;;;;;5024325;28;20032;-48
2023/03/11 03:24:19;;;;;;;14.30;12.32;;;26.20;94.10;;;;;;5023136;28;20057;-56
2023/03/11 03:26:45;;;;;;;13.20;11.73;;;26.20;94.10;;;;;;5023956;28;20026;-48
2023/03/11 03:29:12;;;;;;;13.82;12.35;;;26.20;94.00;;;;;;5023794;28;20092;-51
2023/03/11 03:31:38;;;;;;;13.82;12.25;;;26.20;94.00;;;;;;5024093;28;20100;-52
2023/03/11 03:34:05;;;;;;;12.50;11.20;;;26.20;94.00;;;;;;5023663;28;20033;-50
2023/03/11 03:36:32;;;;;;;21.50;12.43;;;26.20;94.00;;;;;;5023992;28;20305;-51
2023/03/11 03:38:58;;;;;;;13.32;11.75;;;26.20;94.00;;;;;;5023646;28;20038;-51
2023/03/11 03:41:25;;;;;;;14.80;11.68;;;26.20;94.00;;;;;;5023965;28;20068;-53
2023/03/11 03:43:53;;;;;;;12.50;11.20;;;26.20;94.00;;;;;;5023654;28;20073;-52
2023/03/11 03:46:20;;;;;;;15.00;12.40;;;26.20;93.90;;;;;;5023081;28;20306;-49
2023/03/11 03:48:47;;;;;;;13.48;12.00;;;26.20;94.00;;;;;;5023434;28;20030;-52
2023/03/11 03:51:14;;;;;;;14.55;11.63;;;26.20;93.90;;;;;;5023796;28;20022;-52
2023/03/11 03:53:42;;;;;;;14.65;11.57;;;26.20;94.00;;;;;;5023545;28;20195;-53
2023/03/11 03:56:11;;;;;;;16.52;12.07;;;26.20;94.00;;;;;;5023586;28;20042;-51
2023/03/11 03:58:38;;;;;;;12.98;11.55;;;26.20;93.90;;;;;;5023526;28;20033;-53
2023/03/11 04:01:07;;;;;;;12.93;11.60;;;26.10;94.00;;;;;;5024145;28;20033;-54
2023/03/11 04:03:34;;;;;;;13.35;11.80;;;26.20;94.00;;;;;;5023444;28;20103;-52
2023/03/11 04:06:16;;;;;;;13.57;11.45;;;26.10;93.80;;;;;;5024976;28;20014;-57
2023/03/11 04:08:43;;;;;;;13.35;10.73;;;26.10;93.90;;;;;;5026958;28;20033;-54
2023/03/11 04:11:09;;;;;;;15.55;11.75;;;26.10;93.90;;;;;;5027275;28;20202;-50
2023/03/11 04:13:36;;;;;;;15.00;11.93;;;26.10;93.90;;;;;;5026965;28;20107;-48
2023/03/11 04:16:05;;;;;;;14.85;11.32;;;26.10;93.90;;;;;;5026939;28;20026;-53
2023/03/11 04:18:32;;;;;;;13.55;11.20;;;26.10;93.90;;;;;;5026998;28;20029;-58
2023/03/11 04:20:59;;;;;;;14.10;11.80;;;26.10;93.90;;;;;;5026922;28;20029;-53
2023/03/11 04:23:25;;;;;;;12.60;11.30;;;26.10;93.90;;;;;;5026655;28;20348;-51
2023/03/11 04:25:52;;;;;;;16.10;11.77;;;26.10;94.00;;;;;;5027047;28;20041;-51
2023/03/11 04:28:19;;;;;;;12.90;10.85;;;26.10;93.90;;;;;;5026751;28;20098;-48
2023/03/11 04:30:45;;;;;;;17.27;12.25;;;26.10;93.90;;;;;;5022589;28;20025;-52
2023/03/11 04:33:12;;;;;;;14.48;10.57;;;26.10;93.90;;;;;;5017713;28;20058;-53
2023/03/11 04:35:38;;;;;;;12.88;10.88;;;26.10;93.70;;;;;;5026580;28;20018;-54
2023/03/11 04:38:05;;;;;;;12.65;10.63;;;26.10;93.80;;;;;;5026543;28;20034;-51
2023/03/11 04:40:32;;;;;;;13.38;10.88;;;26.10;93.70;;;;;;5026422;28;20322;-49
2023/03/11 04:42:58;;;;;;;14.20;10.73;;;26.10;93.70;;;;;;5026178;28;20053;-48
2023/03/11 04:45:25;;;;;;;11.40;10.18;;;26.10;93.60;;;;;;5026367;28;20029;-48
2023/03/11 04:47:51;;;;;;;12.98;10.68;;;26.10;93.70;;;;;;5026123;28;20028;-54
2023/03/11 04:50:18;;;;;;;14.95;10.57;;;26.10;93.70;;;;;;5026189;28;20072;-48
2023/03/11 04:52:45;;;;;;;12.93;10.45;;;26.10;93.70;;;;;;5026305;28;20037;-52
2023/03/11 04:55:13;;;;;;;14.98;10.85;;;26.00;93.70;;;;;;5025979;28;20085;-48
2023/03/11 04:57:43;;;;;;;12.60;10.80;;;26.10;93.80;;;;;;5026073;28;20037;-53
2023/03/11 05:00:12;;;;;;;14.85;10.30;;;26.10;93.60;;;;;;5026120;28;20030;-51
2023/03/11 05:02:39;;;;;;;14.05;11.00;;;26.00;93.60;;;;;;5025879;28;20322;-52
2023/03/11 05:05:08;;;;;;;13.52;10.75;;;26.00;93.70;;;;;;5025917;28;20307;-55
2023/03/11 05:07:35;;;;;;;14.23;11.13;;;26.10;93.90;;;;;;5026422;28;20031;-47
2023/03/11 05:10:03;;;;;;;13.38;10.50;;;26.10;94.00;;;;;;5025866;28;20041;-47
2023/03/11 05:12:30;;;;;;;12.93;11.13;;;26.10;94.10;;;;;;5026435;28;20025;-48
2023/03/11 05:14:56;;;;;;;12.90;11.25;;;26.10;94.10;;;;;;5026083;28;20038;-50
2023/03/11 05:17:23;;;;;;;13.25;11.45;;;26.10;94.10;;;;;;5025603;28;20088;-54
2023/03/11 05:19:52;;;;;;;14.05;11.75;;;26.10;94.20;;;;;;5025661;28;20372;-55
2023/03/11 05:22:19;;;;;;;15.27;11.40;;;26.10;94.20;;;;;;5026022;28;20286;-55
2023/03/11 05:24:46;;;;;;;14.85;10.82;;;26.10;94.10;;;;;;5026088;28;20088;-56
2023/03/11 05:27:17;;;;;;;13.57;11.10;;;26.10;94.10;;;;;;5025909;28;20030;-52
2023/03/11 05:29:44;;;;;;;15.23;11.10;;;26.10;94.20;;;;;;5025435;28;20030;-56
2023/03/11 05:32:11;;;;;;;15.68;11.30;;;26.10;94.30;;;;;;5025984;28;20038;-58
2023/03/11 05:34:38;;;;;;;14.15;10.65;;;26.10;94.20;;;;;;5025470;28;20065;-54
2023/03/11 05:37:04;;;;;;;11.55;10.35;;;26.00;94.10;;;;;;5025188;28;20032;-49
2023/03/11 05:39:31;;;;;;;11.63;10.30;;;26.00;94.10;;;;;;5025382;28;20033;-46
2023/03/11 05:41:58;;;;;;;13.90;9.75;;;26.10;94.20;;;;;;5025339;28;20038;-54
2023/03/11 05:44:24;;;;;;;16.05;10.07;;;26.00;94.30;;;;;;5025233;28;20034;-51
2023/03/11 05:46:51;;;;;;;11.50;10.30;;;26.00;94.30;;;;;;5025834;28;20036;-52
2023/03/11 05:49:20;;;;;;;12.98;9.98;;;26.00;94.30;;;;;;5025310;28;20025;-51
2023/03/11 05:51:47;;;;;;;10.80;9.77;;;26.00;94.20;;;;;;5025413;28;20096;-47
2023/03/11 05:54:16;;;;;;;11.52;9.60;;;26.00;94.30;;;;;;5025446;28;20034;-46
2023/03/11 05:56:54;;;;;;;10.60;9.50;;;26.00;94.30;;;;;;5025948;28;20022;-48
2023/03/11 05:59:28;;;;;;;10.70;9.45;;;26.00;94.30;;;;;;5024016;28;20177;-51
2023/03/11 06:01:55;;;;;;;10.77;9.80;;;26.00;94.40;;;;;;5025375;28;20026;-48
2023/03/11 06:04:21;;;;;;;12.77;10.07;;;26.00;94.30;;;;;;5024824;28;20081;-54
2023/03/11 06:06:48;;;;;;;13.05;10.38;;;26.00;94.40;;;;;;5025115;28;20121;-46
2023/03/11 06:09:15;;;;;;;10.48;9.48;;;26.00;94.40;;;;;;5024954;28;20018;-53
2023/03/11 06:11:42;;;;;;;11.55;10.10;;;26.00;94.40;;;;;;5025039;28;20029;-51
2023/03/11 06:14:13;;;;;;;14.98;10.02;;;26.00;94.30;;;;;;5024588;28;20026;-53
2023/03/11 06:16:40;;;;;;;12.32;10.43;;;26.00;94.20;;;;;;5025070;28;20104;-48
2023/03/11 06:19:07;;;;;;;11.27;9.80;;;26.00;94.20;;;;;;5024571;28;20025;-51
2023/03/11 06:21:33;;;;;;;14.65;9.80;;;26.00;94.00;;;;;;5024478;28;20100;-51
2023/03/11 06:24:00;;;;;;;12.35;9.88;;;26.00;94.10;;;;;;5024497;28;20093;-50
2023/03/11 06:26:30;;;;;;;12.73;9.35;;;26.00;94.00;;;;;;5024769;28;20025;-51
2023/03/11 06:28:56;;;;;;;12.73;9.88;;;26.00;94.00;;;;;;5023829;28;20097;-55
2023/03/11 06:31:25;;;;;;;11.35;10.18;;;26.00;93.90;;;;;;5024490;28;20053;-51
2023/03/11 06:33:54;;;;;;;13.13;9.88;;;26.00;93.90;;;;;;5024423;28;20046;-46
2023/03/11 06:36:22;;;;;;;13.18;10.43;;;26.00;94.20;;;;;;5024655;28;20162;-50
2023/03/11 06:38:50;;;;;;;14.60;10.48;;;26.00;94.00;;;;;;5024499;28;20030;-49
2023/03/11 06:41:17;;;;;;;13.75;10.18;;;26.00;94.00;;;;;;5024259;28;20097;-50
2023/03/11 06:43:43;;;;;;;12.52;10.45;;;26.00;94.10;;;;;;5024021;28;20253;-49
2023/03/11 06:46:20;;;;;;;13.23;10.25;;;26.00;94.10;;;;;;5024433;28;20033;-51
2023/03/11 06:48:51;;;;;;;13.70;10.80;;;26.00;94.20;;;;;;5024087;28;20029;-49
2023/03/11 06:51:18;;;;;;;15.82;10.57;;;26.00;94.20;;;;;;5024296;28;20056;-48
2023/03/11 06:53:50;;;;;;;15.57;10.18;;;26.00;94.20;;;;;;5024277;28;20325;-47
2023/03/11 06:56:17;;;;;;;11.45;10.20;;;26.00;94.20;;;;;;5024159;28;20033;-50
2023/03/11 06:58:44;;;;;;;19.25;10.82;;;26.00;94.20;;;;;;5024647;28;20036;-47
2023/03/11 07:01:19;;;;;;;14.25;10.05;;;26.00;94.20;;;;;;5024324;28;20022;-50
2023/03/11 07:03:47;;;;;;;13.30;10.85;;;26.00;94.20;;;;;;5024005;28;20037;-50
2023/03/11 07:06:17;;;;;;;12.65;10.05;;;25.90;94.10;;;;;;5024105;28;20065;-55
2023/03/11 07:08:45;;;;;;;15.88;9.88;;;25.90;94.10;;;;;;5024235;28;20045;-48
2023/03/11 07:11:18;;;;;;;15.40;10.10;;;25.90;94.10;;;;;;5024149;28;20014;-48
2023/03/11 07:13:45;;;;;;;15.23;10.10;;;25.90;94.00;;;;;;5023957;28;20195;-45
2023/03/11 07:16:17;;;;;;;12.95;9.82;;;25.90;94.10;;;;;;5023987;28;20042;-53
2023/03/11 07:18:44;;;;;;;;;;;25.90;94.00;;;;;;5024280;28;20065;-53
2023/03/11 07:21:16;;;;;;;11.77;9.43;;;25.90;94.10;;;;;;5024202;28;20126;-50
2023/03/11 07:23:43;;;;;;;;;;;25.90;94.20;;;;;;5024512;28;20045;-55
2023/03/11 07:26:11;;;;;;;15.02;9.57;;;25.90;94.10;;;;;;5024161;28;19984;-52
2023/03/11 07:28:38;;;;;;;11.05;9.15;;;25.90;94.20;;;;;;5023816;28;20037;-52
2023/03/11 07:31:09;;;;;;;10.82;9.32;;;25.90;94.10;;;;;;5024128;28;20248;-54
2023/03/11 07:33:37;;;;;;;11.30;8.73;;;25.80;94.10;;;;;;5023839;28;20045;-50
2023/03/11 07:36:12;;;;;;;11.95;9.23;;;25.90;94.10;;;;;;5023781;28;20375;-48
2023/03/11 07:38:39;;;;;;;11.82;8.90;;;25.90;94.10;;;;;;5023697;28;20310;-46
2023/03/11 07:41:06;;;;;;;11.13;8.85;;;25.90;94.00;;;;;;5025323;28;20022;-46
2023/03/11 07:43:33;;;;;;;12.57;8.80;;;25.90;94.00;;;;;;5027179;28;20084;-49
2023/03/11 07:46:03;;;;;;;12.00;8.63;;;25.90;93.90;;;;;;5027655;28;20036;-49
2023/03/11 07:48:29;;;;;;;11.43;9.00;;;25.90;93.90;;;;;;5027521;28;20081;-46
2023/03/11 07:51:10;;;;;;;12.18;8.85;;;25.90;93.90;;;;;;5027444;28;20034;-52
2023/03/11 07:53:39;;;;;;;12.52;8.90;;;25.90;93.90;;;;;;5027265;28;20060;-53
2023/03/11 07:56:07;;;;;;;11.85;8.85;;;25.90;93.80;;;;;;5027281;28;20245;-51
2023/03/11 07:58:34;;;;;;;10.00;8.95;;;25.90;94.00;;;;;;5027478;28;20041;-53
2023/03/11 08:01:10;;;;;;;11.13;8.52;;;25.90;93.90;;;;;;5027341;28;20064;-52
2023/03/11 08:03:38;;;;;;;10.18;8.60;;;25.90;93.90;;;;;;5026942;28;20116;-47
2023/03/11 08:06:16;;;;;;;10.40;8.60;;;25.90;93.90;;;;;;5027079;28;20102;-48
2023/03/11 08:08:43;;;;;;;11.18;8.43;;;25.90;94.00;;;;;;5027284;28;20041;-52
2023/03/11 08:11:14;;;;;;;12.27;8.40;;;25.90;94.00;;;;;;5027258;28;20018;-56
2023/03/11 08:13:43;;;;;;;12.70;8.93;;;25.90;94.00;;;;;;5026994;28;20048;-49
2023/03/11 08:16:12;;;;;;;9.80;8.68;;;25.90;93.90;;;;;;5027019;28;20057;-53
2023/03/11 08:18:38;;;;;;;12.70;8.43;;;25.90;93.90;;;;;;5027003;28;20103;-55
2023/03/11 08:21:10;;;;;;;9.85;8.45;;;25.90;93.90;;;;;;5026755;28;20022;-59
2023/03/11 08:23:37;;;;;;;9.63;8.00;;;25.90;93.90;;;;;;5026556;28;20053;-48
2023/03/11 08:26:06;;;;;;;9.65;7.97;;;25.90;93.70;;;;;;5027023;28;20022;-51
2023/03/11 08:28:33;;;;;;;9.48;7.65;;;25.90;93.80;;;;;;5026737;28;20101;-50
2023/03/11 08:31:00;;;;;;;11.13;7.72;;;25.90;93.70;;;;;;5026687;28;20033;-53
2023/03/11 08:33:27;;;;;;;11.85;8.32;;;25.90;93.60;;;;;;5026612;28;20030;-48
2023/03/11 08:35:54;;;;;;;11.30;7.45;;;25.90;93.60;;;;;;5026696;28;20290;-47
2023/03/11 08:38:21;;;;;;;8.38;7.53;;;25.90;93.60;;;;;;5026336;28;20034;-48
2023/03/11 08:40:47;;;;;;;10.05;7.72;;;25.90;93.40;;;;;;5026584;28;20265;-55
2023/03/11 08:43:15;;;;;;;8.98;7.40;;;25.90;93.40;;;;;;5026314;28;20388;-54
2023/03/11 08:45:42;;;;;;;8.25;7.45;;;25.90;93.40;;;;;;5026272;28;20022;-52
2023/03/11 08:48:10;;;;;;;9.52;7.93;;;25.90;93.40;;;;;;5026496;28;20254;-53
2023/03/11 08:50:40;;;;;;;8.02;7.22;;;25.90;93.50;;;;;;5026215;28;20036;-46
2023/03/11 08:53:07;;;;;;;9.35;7.15;;;25.90;93.50;;;;;;5025267;28;20245;-50
2023/03/11 08:55:34;;;;;;;8.60;7.03;;;25.90;93.50;;;;;;5026407;28;20044;-51
2023/03/11 08:58:01;;;;;;;8.35;6.93;;;25.90;93.60;;;;;;5026033;28;20384;-51
2023/03/11 09:00:28;;;;;;;9.05;7.10;;;25.80;93.50;;;;;;5025960;28;20281;-55
2023/03/11 09:02:54;;;;;;;11.50;7.03;;;25.80;93.50;;;;;;5026118;28;20064;-52
2023/03/11 09:05:21;;;;;;;8.80;6.82;;;25.80;93.60;;;;;;5018898;28;20041;-48
2023/03/11 09:07:47;;;;;;;8.50;7.05;;;25.80;93.70;;;;;;5012547;28;20066;-48
2023/03/11 09:10:15;;;;;;;8.68;7.07;;;25.80;93.60;;;;;;5010544;28;20020;-46
2023/03/11 09:12:42;;;;;;;10.80;7.20;;;25.80;93.60;;;;;;5011406;28;20072;-51
2023/03/11 09:15:09;;;;;;;8.98;7.03;;;25.80;93.60;;;;;;5006173;28;20022;-51
2023/03/11 09:17:36;;;;;;;7.50;6.70;;;25.80;93.70;;;;;;5006688;28;20045;-57
2023/03/11 09:20:03;;;;;;;10.02;6.88;;;25.80;93.70;;;;;;5006157;28;20046;-51
2023/03/11 09:22:30;;;;;;;11.65;6.88;;;25.80;93.60;;;;;;5005933;28;20030;-46
2023/03/11 09:24:57;;;;;;;8.88;7.05;;;25.80;93.60;;;;;;5005999;28;20222;-51
2023/03/11 09:27:23;;;;;;;9.63;6.60;;;25.80;93.50;;;;;;5006464;28;20050;-56
2023/03/11 09:29:50;;;;;;;10.38;6.70;;;25.80;93.20;;;;;;5005911;28;20031;-52
2023/03/11 09:32:16;;;;;;;9.55;6.43;;;25.70;93.20;;;;;;5006293;28;20022;-51
2023/03/11 09:34:43;;;;;;;10.10;6.57;;;25.80;93.30;;;;;;5005847;28;20056;-52
2023/03/11 09:37:10;;;;;;;11.70;6.53;;;25.70;93.30;;;;;;5005715;28;20072;-49
2023/03/11 09:39:36;;;;;;;9.18;6.90;;;25.70;93.40;;;;;;5005733;28;20034;-48
2023/03/11 09:42:21;;;;;;;11.57;7.18;;;25.70;93.60;;;;;;5005914;28;20069;-53
2023/03/11 09:45:02;;;;;;;8.48;6.40;;;25.80;93.70;;;;;;5004583;28;20056;-50
2023/03/11 09:47:38;;;;;;;10.27;6.83;;;25.70;93.60;;;;;;5006116;28;20066;-47
2023/03/11 09:50:43;;;;;;;7.15;6.43;;;25.70;93.50;;;;;;5005836;28;20222;-49
2023/03/11 09:53:30;;;;;;;9.50;6.60;;;25.70;93.70;;;;;;4945811;29;20148;-49
2023/03/11 09:56:02;;;;;;;9.77;6.25;;;25.70;93.80;;;;;;4945755;29;20043;-54
2023/03/11 09:58:41;;;;;;;12.18;6.38;;;25.70;93.80;;;;;;4985438;28;20046;-50
2023/03/11 10:01:29;;;;;;;7.57;6.68;;;25.70;93.80;;;;;;5005581;28;20120;-52
2023/03/11 10:04:02;;;;;;;6.93;6.22;;;25.70;93.80;;;;;;5005139;28;20186;-55
2023/03/11 10:06:30;;;;;;;8.55;6.47;;;25.70;93.90;;;;;;5005538;28;20029;-47
2023/03/11 10:09:12;;;;;;;10.32;6.95;;;25.70;94.00;;;;;;5005210;28;20077;-49
2023/03/11 10:11:47;;;;;;;12.05;7.20;;;25.70;94.00;;;;;;5005437;28;20214;-52
2023/03/11 10:14:42;;;;;;;18.77;9.32;;;25.70;94.10;;;;;;5005181;28;20042;-50
2023/03/11 10:17:31;;;;;;;21.33;9.80;;;25.70;94.40;;;;;;5005382;28;20314;-57
2023/03/11 10:20:07;;;;;;;16.40;9.25;;;25.70;94.70;;;;;;5004993;28;20105;-50
2023/03/11 10:23:04;;;;;;;19.17;9.35;;;25.60;94.60;;;;;;5005300;28;20037;-52
2023/03/11 10:25:48;;;;;;;13.40;8.80;;;25.50;94.70;;;;;;5004766;28;20038;-56
2023/03/11 10:28:21;;;;;;;14.18;8.85;;;25.40;94.60;;;;;;5004893;28;20057;-47
2023/03/11 10:30:50;;;;;;;;;;;25.40;94.60;;;;;;5005194;28;20026;-48
2023/03/11 10:33:43;;;;;;;13.18;9.00;;;25.40;94.60;;;;;;5004728;28;19910;-50
2023/03/11 10:36:22;;;;;;;14.50;8.57;;;25.40;94.70;;;;;;5015362;28;20026;-60
2023/03/11 10:38:51;;;;;;;14.57;8.60;;;25.50;94.70;;;;;;5004600;28;20023;-52
2023/03/11 10:41:30;;;;;;;13.68;8.82;;;25.40;94.60;;;;;;5004700;28;20034;-50
2023/03/11 10:44:05;;;;;;;11.73;8.45;;;25.40;94.90;;;;;;5004134;28;20053;-53
2023/03/11 10:46:32;;;;;;;13.13;8.57;;;25.40;94.60;;;;;;5015502;28;20077;-50
2023/03/11 10:48:58;;;;;;;14.98;8.60;;;25.40;94.60;;;;;;5004712;28;20110;-46
2023/03/11 10:51:33;;;;;;;12.25;8.52;;;25.30;94.70;;;;;;5004894;28;20026;-54
2023/03/11 10:54:03;;;;;;;16.05;8.88;;;25.40;94.70;;;;;;5004690;28;20101;-53
2023/03/11 10:56:37;;;;;;;12.35;8.65;;;25.40;94.80;;;;;;5004850;28;20038;-49
2023/03/11 10:59:21;;;;;;;15.05;9.38;;;25.50;94.90;;;;;;5004529;28;20045;-56
2023/03/11 11:01:59;;;;;;;10.80;8.15;;;25.40;94.90;;;;;;5016262;28;20030;-50
2023/03/11 11:04:38;;;;;;;15.25;8.73;;;25.40;94.80;;;;;;5023096;28;20042;-47
2023/03/11 11:07:39;;;;;;;14.75;9.05;;;25.40;94.90;;;;;;5021569;28;20080;-48
2023/03/11 11:10:11;;;;;;;16.52;9.57;;;25.40;95.00;;;;;;5023825;28;20030;-53
2023/03/11 11:12:50;;;;;;;14.27;9.55;;;25.40;95.00;;;;;;5022043;28;20038;-49
2023/03/11 11:15:32;;;;;;;12.57;9.18;;;25.40;95.10;;;;;;5015017;28;20034;-52
2023/03/11 11:18:05;;;;;;;15.40;9.57;;;25.30;95.20;;;;;;5028123;28;20083;-52
2023/03/11 11:20:33;;;;;;;14.77;9.63;;;25.30;95.20;;;;;;5028160;28;20249;-47
2023/03/11 11:23:02;;;;;;;14.63;9.35;;;25.30;95.30;;;;;;5026957;28;20057;-54
2023/03/11 11:25:36;;;;;;;13.68;9.10;;;25.30;95.20;;;;;;5027929;28;20258;-54
2023/03/11 11:28:23;;;;;;;14.35;10.02;;;25.30;95.40;;;;;;5028094;28;20026;-52
2023/03/11 11:31:23;;;;;;;23.50;16.58;;;25.00;95.80;;;;;;5027707;28;20061;-45
2023/03/11 11:33:55;;;;;;;18.20;13.32;;;24.70;96.90;;;;;;5024985;28;20120;-45
2023/03/11 11:36:30;;;;;;;20.23;12.93;;;24.50;97.50;;;;;;5027830;28;20076;-48
2023/03/11 11:39:02;;;;;;;14.48;11.68;;;24.30;98.00;;;;;;5028030;28;20253;-48
2023/03/11 11:41:31;;;;;;;15.67;12.47;;;24.30;98.20;;;;;;5025712;28;20029;-48
2023/03/11 11:44:00;;;;;;;15.45;12.00;;;24.20;98.50;;;;;;5027724;28;20089;-44
2023/03/11 11:46:45;;;;;;;18.20;11.93;;;24.30;98.60;;;;;;5027513;28;20017;-49
2023/03/11 11:49:26;;;;;;;13.77;10.82;;;24.50;98.40;;;;;;5027929;28;20049;-54
2023/03/11 11:52:15;;;;;;;15.52;11.30;;;24.70;97.90;;;;;;5027329;28;20093;-58
2023/03/11 11:55:00;;;;;;;15.82;11.18;;;24.80;97.60;;;;;;5027336;28;20037;-58
2023/03/11 11:57:31;;;;;;;14.00;10.90;;;24.90;97.30;;;;;;5027570;28;20089;-56
2023/03/11 12:00:20;;;;;;;14.18;11.18;;;24.90;97.00;;;;;;5027407;28;20034;-58
2023/03/11 12:07:07;;;;;;;14.95;10.73;;;24.90;96.90;;;;;;4986583;28;20149;-41
2023/03/11 12:09:57;;;;;;;12.90;10.68;;;25.00;96.70;;;;;;4986259;28;20030;-42
2023/03/11 12:12:41;;;;;;;16.50;10.50;;;25.00;96.50;;;;;;5026923;28;20317;-43
2023/03/11 12:15:28;;;;;;;14.63;10.18;;;25.10;96.50;;;;;;5026921;28;20026;-42
2023/03/11 12:18:01;;;;;;;11.38;9.55;;;25.10;96.50;;;;;;5027011;28;20038;-43
2023/03/11 12:20:36;;;;;;;11.23;9.35;;;25.10;96.30;;;;;;5026832;28;20022;-44
2023/03/11 12:23:05;;;;;;;10.20;9.18;;;25.10;96.20;;;;;;5026932;28;20045;-44
2023/03/11 12:25:41;;;;;;;11.68;9.88;;;25.10;96.10;;;;;;5026645;28;20022;-51
2023/03/11 12:28:25;;;;;;;9.98;8.93;;;25.10;96.00;;;;;;5025390;28;20322;-50
2023/03/11 12:30:55;;;;;;;12.45;9.45;;;25.10;96.10;;;;;;5026907;28;20298;-49
2023/03/11 12:33:43;;;;;;;12.13;9.48;;;25.10;96.00;;;;;;5026697;28;20036;-51
2023/03/11 12:36:43;;;;;;;12.27;9.32;;;25.10;95.90;;;;;;5026939;28;20044;-50
2023/03/11 12:39:33;;;;;;;12.82;10.05;;;25.10;96.10;;;;;;5023040;28;20350;-50
2023/03/11 12:42:19;;;;;;;14.23;9.57;;;25.10;96.00;;;;;;5026473;28;20271;-48
2023/03/11 12:44:47;;;;;;;9.77;8.48;;;25.10;95.90;;;;;;5026421;28;20049;-51
2023/03/11 12:47:13;;;;;;;10.80;9.40;;;25.10;95.90;;;;;;5026493;28;20026;-50
2023/03/11 12:49:42;;;;;;;12.77;9.50;;;25.10;95.90;;;;;;5026299;28;20029;-51
2023/03/11 12:52:12;;;;;;;10.85;8.18;;;25.00;95.80;;;;;;5026370;28;20051;-53
2023/03/11 12:54:41;;;;;;;11.57;9.00;;;25.00;95.70;;;;;;5026307;28;20033;-48
2023/03/11 12:57:25;;;;;;;13.90;9.20;;;25.00;95.80;;;;;;5026062;28;20063;-48